createdAt,value
2019-01-16T00:01:34.999Z,97271.09
2019-01-16T00:06:46.248Z,97264.16
2019-01-16T00:11:58.758Z,97259.84
2019-01-16T00:16:57.647Z,97261.23
2019-01-16T00:21:56.430Z,97276.38
2019-01-16T00:27:08.616Z,97272.58
2019-01-16T00:32:22.843Z,97264.33
2019-01-16T00:37:19.108Z,97254.34
2019-01-16T00:42:18.367Z,97251.27
2019-01-16T00:47:20.307Z,97245.47
2019-01-16T00:52:19.398Z,97245.38
2019-01-16T00:57:15.625Z,97224.75
2019-01-16T01:02:10.131Z,97228.62
2019-01-16T01:07:09.213Z,97223.72
2019-01-16T01:12:05.616Z,97222.03
2019-01-16T01:17:04.595Z,97225.98
2019-01-16T01:22:16.751Z,97225.63
2019-01-16T01:27:18.949Z,97218.56
2019-01-16T01:32:13.302Z,97220.52
2019-01-16T01:37:09.691Z,97226.59
2019-01-16T01:42:08.894Z,97225.55
2019-01-16T01:47:05.113Z,97227.27
2019-01-16T01:52:05.462Z,97231.96
2019-01-16T01:57:04.514Z,97215.86
2019-01-16T02:02:09.235Z,97214.23
2019-01-16T02:07:20.454Z,97201.17
2019-01-16T02:12:22.193Z,97204.91
2019-01-16T02:17:31.875Z,97200.98
2019-01-16T02:22:28.125Z,97193.02
2019-01-16T02:27:24.529Z,97186.59
2019-01-16T02:32:25.013Z,97175.08
2019-01-16T02:37:21.237Z,97183.66
2019-01-16T02:42:33.311Z,97173.41
2019-01-16T02:47:35.225Z,97165.04
2019-01-16T02:52:43.354Z,97159.32
2019-01-16T02:57:39.592Z,97154.23
2019-01-16T03:02:44.431Z,97157.09
2019-01-16T03:07:40.764Z,97156.84
2019-01-16T03:12:43.931Z,97158.37
2019-01-16T03:17:38.294Z,97144.53
2019-01-16T03:22:34.536Z,97138.37
2019-01-16T03:27:46.795Z,97134.54
2019-01-16T03:32:48.752Z,97131.56
2019-01-16T03:37:47.991Z,97120.96
2019-01-16T03:43:00.152Z,97112.58
2019-01-16T03:48:03.330Z,97114.17
2019-01-16T03:52:59.576Z,97110.70
2019-01-16T03:58:11.850Z,97104.19
2019-01-16T04:03:24.108Z,97084.80
2019-01-16T04:08:38.336Z,97078.92
2019-01-16T04:13:50.864Z,97065.64
2019-01-16T04:19:03.248Z,97069.56
2019-01-16T04:24:05.362Z,97075.30
2019-01-16T04:29:04.461Z,97070.80
2019-01-16T04:34:12.534Z,97084.98
2019-01-16T04:39:08.469Z,97084.48
2019-01-16T04:44:10.668Z,97080.11
2019-01-16T04:49:09.665Z,97065.08
2019-01-16T04:54:22.451Z,97066.32
2019-01-16T04:59:21.454Z,97053.48
2019-01-16T05:04:20.138Z,97038.51
2019-01-16T05:09:20.202Z,97030.78
2019-01-16T05:14:20.276Z,97031.44
2019-01-16T05:19:25.114Z,97032.58
2019-01-16T05:24:21.362Z,97027.63
2019-01-16T05:29:33.578Z,97030.41
2019-01-16T05:34:39.707Z,97030.38
2019-01-16T05:39:35.951Z,97029.91
2019-01-16T05:44:38.295Z,97028.00
2019-01-16T05:49:46.959Z,97022.43
2019-01-16T05:54:55.986Z,97018.17
2019-01-16T05:59:52.221Z,96998.59
2019-01-16T06:04:53.904Z,97000.80
2019-01-16T06:10:08.236Z,97004.70
2019-01-16T06:15:20.599Z,97007.18
2019-01-16T06:20:25.997Z,96998.44
2019-01-16T06:25:24.780Z,96984.88
2019-01-16T06:30:21.006Z,96983.59
2019-01-16T06:35:17.244Z,96987.47
2019-01-16T06:40:13.816Z,96977.48
2019-01-16T06:45:11.678Z,96975.76
2019-01-16T06:50:16.629Z,96967.36
2019-01-16T06:55:21.041Z,96964.55
2019-01-16T07:00:26.706Z,96969.99
2019-01-16T07:05:22.928Z,96968.01
2019-01-16T07:10:34.139Z,96973.39
2019-01-16T07:15:42.537Z,96975.63
2019-01-16T07:20:38.844Z,96971.59
2019-01-16T07:25:51.307Z,96984.30
2019-01-16T07:30:50.346Z,96970.70
2019-01-16T07:36:01.664Z,96967.42
2019-01-16T07:41:13.526Z,96957.11
2019-01-16T07:46:10.161Z,96961.73
2019-01-16T07:51:12.755Z,96955.67
2019-01-16T07:56:24.821Z,96953.16
2019-01-16T08:01:29.704Z,96956.73
2019-01-16T08:06:26.077Z,96965.42
2019-01-16T08:11:37.015Z,96954.61
2019-01-16T08:16:44.948Z,96953.92
2019-01-16T08:21:40.395Z,96953.30
2019-01-16T08:26:36.658Z,96958.13
2019-01-16T08:31:33.158Z,96960.43
2019-01-16T08:36:51.911Z,96955.52
2019-01-16T08:41:54.468Z,96975.19
2019-01-16T08:46:59.619Z,96971.00
2019-01-16T08:52:08.077Z,96979.41
2019-01-16T08:57:04.271Z,96978.92
2019-01-16T09:02:18.655Z,96981.98
2019-01-16T09:07:29.870Z,96975.37
2019-01-16T09:12:27.592Z,96973.41
2019-01-16T09:17:32.571Z,96960.67
2019-01-16T09:22:29.642Z,96951.31
2019-01-16T09:27:38.888Z,96949.34
2019-01-16T09:32:51.285Z,96945.77
2019-01-16T09:37:50.491Z,96945.84
2019-01-16T09:42:59.270Z,96944.98
2019-01-16T09:48:01.379Z,96946.75
2019-01-16T09:53:00.326Z,96941.14
2019-01-16T09:58:04.711Z,96932.52
2019-01-16T10:03:18.772Z,96931.63
2019-01-16T10:08:17.643Z,96933.88
2019-01-16T10:13:19.012Z,96926.55
2019-01-16T10:18:16.948Z,96931.22
2019-01-16T10:23:14.838Z,96916.51
2019-01-16T10:28:19.670Z,96917.20
2019-01-16T10:33:16.010Z,96902.55
2019-01-16T10:38:22.180Z,96889.69
2019-01-16T10:43:35.879Z,96878.95
2019-01-16T10:48:36.336Z,96868.64
2019-01-16T10:53:39.330Z,96861.58
2019-01-16T10:58:51.763Z,96853.87
2019-01-16T11:03:53.632Z,96843.63
2019-01-16T11:08:55.659Z,96835.06
2019-01-16T11:13:55.080Z,96822.47
2019-01-16T11:18:53.738Z,96807.79
2019-01-16T11:23:58.572Z,96802.11
2019-01-16T11:28:56.724Z,96804.62
2019-01-16T11:33:58.766Z,96791.91
2019-01-16T11:38:53.885Z,96783.78
2019-01-16T11:44:02.329Z,96781.10
2019-01-16T11:48:57.783Z,96779.29
2019-01-16T11:53:54.153Z,96769.59
2019-01-16T11:58:52.782Z,96754.37
2019-01-16T12:03:52.153Z,96750.58
2019-01-16T12:08:49.332Z,96735.61
2019-01-16T12:13:46.126Z,96722.97
2019-01-16T12:18:57.505Z,96710.59
2019-01-16T12:24:09.569Z,96698.13
2019-01-16T12:29:23.472Z,96694.97
2019-01-16T12:34:22.680Z,96682.62
2019-01-16T12:39:34.858Z,96672.72
2019-01-16T12:44:31.989Z,96659.10
2019-01-16T12:49:29.076Z,96653.59
2019-01-16T12:54:23.599Z,96648.19
2019-01-16T12:59:19.847Z,96641.98
2019-01-16T13:04:31.061Z,96641.45
2019-01-16T13:09:29.995Z,96627.22
2019-01-16T13:14:44.525Z,96624.14
2019-01-16T13:19:46.429Z,96616.86
2019-01-16T13:24:42.716Z,96610.77
2019-01-16T13:29:41.812Z,96609.53
2019-01-16T13:34:43.725Z,96603.86
2019-01-16T13:39:42.985Z,96597.52
2019-01-16T13:44:39.524Z,96589.34
2019-01-16T13:49:41.789Z,96590.03
2019-01-16T13:54:38.147Z,96580.06
2019-01-16T13:59:35.342Z,96577.98
2019-01-16T14:04:31.834Z,96572.98
2019-01-16T14:09:33.629Z,96571.58
2019-01-16T14:14:41.824Z,96563.80
2019-01-16T14:19:47.541Z,96565.09
2019-01-16T14:24:41.882Z,96559.38
2019-01-16T14:29:38.343Z,96556.36
2019-01-16T14:34:40.066Z,96550.32
2019-01-16T14:39:45.611Z,96552.58
2019-01-16T14:44:57.467Z,96547.42
2019-01-16T14:49:56.558Z,96531.03
2019-01-16T14:55:07.899Z,96529.49
2019-01-16T15:00:10.153Z,96535.15
2019-01-16T15:05:14.815Z,96525.13
2019-01-16T15:10:27.700Z,96526.78
2019-01-16T15:15:25.007Z,96519.22
2019-01-16T15:20:34.055Z,96516.23
2019-01-16T15:25:45.338Z,96513.59
2019-01-16T15:30:50.132Z,96501.69
2019-01-16T15:35:50.777Z,96502.73
2019-01-16T15:40:48.327Z,96501.71
2019-01-16T15:45:59.077Z,96498.42
2019-01-16T15:51:13.468Z,96493.18
2019-01-16T15:56:27.880Z,96496.08
2019-01-16T16:01:38.893Z,96483.24
2019-01-16T16:06:39.599Z,96480.63
2019-01-16T16:11:55.770Z,96480.75
2019-01-16T16:16:53.361Z,96479.78
2019-01-16T16:22:01.139Z,96477.45
2019-01-16T16:27:07.740Z,96468.82
2019-01-16T16:32:08.044Z,96465.48
2019-01-16T16:37:31.086Z,96463.83
2019-01-16T16:42:44.676Z,96466.27
2019-01-16T16:47:58.269Z,96463.01
2019-01-16T16:53:13.932Z,96461.53
2019-01-16T16:58:15.056Z,96454.38
2019-01-16T17:03:17.401Z,96453.31
2019-01-16T17:08:50.557Z,96451.33
2019-01-16T17:13:48.936Z,96451.11
2019-01-16T17:18:52.641Z,96442.63
2019-01-16T17:23:57.381Z,96445.12
2019-01-16T17:29:02.534Z,96436.67
2019-01-16T17:34:01.177Z,96434.11
2019-01-16T17:39:12.051Z,96433.02
2019-01-16T17:44:17.428Z,96428.34
2019-01-16T17:49:16.342Z,96433.92
2019-01-16T17:54:28.890Z,96430.70
2019-01-16T17:59:32.229Z,96429.18
2019-01-16T18:04:28.458Z,96429.18
2019-01-16T18:09:24.682Z,96425.76
2019-01-16T18:14:23.407Z,96434.36
2019-01-16T18:19:23.250Z,96428.83
2019-01-16T18:24:31.155Z,96435.13
2019-01-16T18:29:33.113Z,96425.84
2019-01-16T18:34:27.482Z,96428.82
2019-01-16T18:39:23.766Z,96426.42
2019-01-16T18:44:31.952Z,96441.92
2019-01-16T18:49:30.655Z,96440.12
2019-01-16T18:54:29.696Z,96431.51
2019-01-16T18:59:40.986Z,96437.78
2019-01-16T19:04:52.006Z,96436.99
2019-01-16T19:10:06.056Z,96437.98
2019-01-16T19:15:14.453Z,96425.48
2019-01-16T19:20:16.950Z,96425.81
2019-01-16T19:25:22.078Z,96415.91
2019-01-16T19:30:33.974Z,96416.23
2019-01-16T19:35:31.360Z,96409.70
2019-01-16T19:40:43.618Z,96411.77
2019-01-16T19:45:56.055Z,96405.08
2019-01-16T19:51:07.297Z,96402.38
2019-01-16T19:56:01.669Z,96399.84
2019-01-16T20:00:57.956Z,96401.84
2019-01-16T20:06:10.592Z,96400.59
2019-01-16T20:11:09.933Z,96408.69
2019-01-16T20:16:12.388Z,96409.76
2019-01-16T20:21:24.775Z,96396.80
2019-01-16T20:26:23.889Z,96394.44
2019-01-16T20:31:20.187Z,96405.73
2019-01-16T20:36:25.173Z,96403.70
2019-01-16T20:41:30.109Z,96402.41
2019-01-16T20:46:29.365Z,96397.57
2019-01-16T20:51:25.586Z,96401.23
2019-01-16T20:56:24.762Z,96409.44
2019-01-16T21:01:23.844Z,96402.95
2019-01-16T21:06:20.894Z,96382.53
2019-01-16T21:11:19.819Z,96393.59
2019-01-16T21:16:21.984Z,96387.97
2019-01-16T21:21:18.370Z,96403.17
2019-01-16T21:26:29.336Z,96377.78
2019-01-16T21:31:25.610Z,96379.63
2019-01-16T21:36:33.887Z,96387.03
2019-01-16T21:41:34.160Z,96378.00
2019-01-16T21:46:33.407Z,96378.10
2019-01-16T21:51:44.631Z,96368.38
2019-01-16T21:56:57.386Z,96372.34
2019-01-16T22:01:53.619Z,96366.63
2019-01-16T22:06:49.932Z,96362.71
2019-01-16T22:12:04.127Z,96357.91
2019-01-16T22:17:00.371Z,96356.87
2019-01-16T22:21:56.599Z,96361.47
2019-01-16T22:26:55.627Z,96355.48
2019-01-16T22:31:54.714Z,96334.98
2019-01-16T22:37:06.218Z,96345.30
2019-01-16T22:42:02.435Z,96346.12
2019-01-16T22:47:01.571Z,96350.13
2019-01-16T22:51:57.808Z,96340.26
2019-01-16T22:56:59.730Z,96326.91
2019-01-16T23:01:56.019Z,96324.52
2019-01-16T23:06:52.321Z,96322.47
2019-01-16T23:11:51.577Z,96317.37
2019-01-16T23:16:47.813Z,96315.81
2019-01-16T23:21:44.073Z,96311.17
2019-01-16T23:26:47.339Z,96314.70
2019-01-16T23:31:52.445Z,96302.97
2019-01-16T23:36:49.214Z,96310.33
2019-01-16T23:41:51.168Z,96309.22
2019-01-16T23:46:56.603Z,96316.27
2019-01-16T23:51:52.947Z,96315.44
2019-01-16T23:56:51.602Z,96315.34
